sensor_id;sensor_type;location;lat;lon;timestamp;P1;durP1;ratioP1;P2;durP2;ratioP2
65636;SDS011;52327;42.622;23.316;2022-07-06T00:01:46;7.68;;;6.93;;
65636;SDS011;52327;42.622;23.316;2022-07-06T00:04:11;7.93;;;6.35;;
65636;SDS011;52327;42.622;23.316;2022-07-06T00:06:37;9.90;;;7.90;;
65636;SDS011;52327;42.622;23.316;2022-07-06T00:09:03;9.00;;;7.78;;
65636;SDS011;52327;42.622;23.316;2022-07-06T00:11:29;7.50;;;6.80;;
65636;SDS011;52327;42.622;23.316;2022-07-06T00:13:54;8.05;;;7.13;;
65636;SDS011;52327;42.622;23.316;2022-07-06T00:16:21;8.63;;;7.72;;
65636;SDS011;52327;42.622;23.316;2022-07-06T00:18:47;10.25;;;8.50;;
65636;SDS011;52327;42.622;23.316;2022-07-06T00:21:12;10.07;;;9.07;;
65636;SDS011;52327;42.622;23.316;2022-07-06T00:23:38;10.43;;;9.40;;
65636;SDS011;52327;42.622;23.316;2022-07-06T00:26:03;11.80;;;10.60;;
65636;SDS011;52327;42.622;23.316;2022-07-06T00:28:29;11.88;;;10.68;;
65636;SDS011;52327;42.622;23.316;2022-07-06T00:30:54;13.35;;;11.48;;
65636;SDS011;52327;42.622;23.316;2022-07-06T00:33:20;12.38;;;11.00;;
65636;SDS011;52327;42.622;23.316;2022-07-06T00:35:46;14.75;;;11.95;;
65636;SDS011;52327;42.622;23.316;2022-07-06T00:38:11;13.70;;;12.32;;
65636;SDS011;52327;42.622;23.316;2022-07-06T00:40:37;13.50;;;11.98;;
65636;SDS011;52327;42.622;23.316;2022-07-06T00:43:02;12.95;;;11.65;;
65636;SDS011;52327;42.622;23.316;2022-07-06T00:45:28;13.27;;;11.95;;
65636;SDS011;52327;42.622;23.316;2022-07-06T00:47:53;13.02;;;11.75;;
65636;SDS011;52327;42.622;23.316;2022-07-06T00:50:19;12.77;;;11.48;;
65636;SDS011;52327;42.622;23.316;2022-07-06T00:55:18;10.23;;;9.07;;
65636;SDS011;52327;42.622;23.316;2022-07-06T00:57:48;9.60;;;8.70;;
65636;SDS011;52327;42.622;23.316;2022-07-06T01:00:15;9.63;;;8.73;;
65636;SDS011;52327;42.622;23.316;2022-07-06T01:02:43;10.65;;;9.55;;
65636;SDS011;52327;42.622;23.316;2022-07-06T01:05:09;9.10;;;8.20;;
65636;SDS011;52327;42.622;23.316;2022-07-06T01:07:36;8.98;;;8.07;;
65636;SDS011;52327;42.622;23.316;2022-07-06T01:10:04;8.43;;;7.60;;
65636;SDS011;52327;42.622;23.316;2022-07-06T01:12:30;9.75;;;8.35;;
65636;SDS011;52327;42.622;23.316;2022-07-06T01:14:57;10.65;;;8.48;;
65636;SDS011;52327;42.622;23.316;2022-07-06T01:17:22;8.98;;;7.88;;
65636;SDS011;52327;42.622;23.316;2022-07-06T01:19:49;9.45;;;8.35;;
65636;SDS011;52327;42.622;23.316;2022-07-06T01:22:14;8.32;;;6.93;;
65636;SDS011;52327;42.622;23.316;2022-07-06T01:24:40;8.00;;;7.30;;
65636;SDS011;52327;42.622;23.316;2022-07-06T01:27:06;8.02;;;6.97;;
65636;SDS011;52327;42.622;23.316;2022-07-06T01:29:32;7.88;;;6.38;;
65636;SDS011;52327;42.622;23.316;2022-07-06T01:31:59;7.07;;;6.32;;
65636;SDS011;52327;42.622;23.316;2022-07-06T01:34:25;7.07;;;6.45;;
65636;SDS011;52327;42.622;23.316;2022-07-06T01:36:51;6.80;;;6.18;;
65636;SDS011;52327;42.622;23.316;2022-07-06T01:39:17;7.05;;;6.38;;
65636;SDS011;52327;42.622;23.316;2022-07-06T01:41:42;7.50;;;6.80;;
65636;SDS011;52327;42.622;23.316;2022-07-06T01:44:08;8.05;;;7.25;;
65636;SDS011;52327;42.622;23.316;2022-07-06T01:46:33;9.25;;;8.30;;
65636;SDS011;52327;42.622;23.316;2022-07-06T01:48:59;7.78;;;6.93;;
65636;SDS011;52327;42.622;23.316;2022-07-06T01:51:25;7.03;;;6.32;;
65636;SDS011;52327;42.622;23.316;2022-07-06T01:53:51;8.65;;;6.97;;
65636;SDS011;52327;42.622;23.316;2022-07-06T01:56:17;9.60;;;7.45;;
65636;SDS011;52327;42.622;23.316;2022-07-06T01:58:44;9.07;;;7.75;;
65636;SDS011;52327;42.622;23.316;2022-07-06T02:01:11;8.45;;;6.53;;
65636;SDS011;52327;42.622;23.316;2022-07-06T02:03:38;9.50;;;7.47;;
65636;SDS011;52327;42.622;23.316;2022-07-06T02:06:04;7.88;;;7.18;;
65636;SDS011;52327;42.622;23.316;2022-07-06T02:08:30;9.40;;;8.50;;
65636;SDS011;52327;42.622;23.316;2022-07-06T02:10:57;9.98;;;8.60;;
65636;SDS011;52327;42.622;23.316;2022-07-06T02:13:22;8.77;;;7.97;;
65636;SDS011;52327;42.622;23.316;2022-07-06T02:15:49;11.23;;;9.00;;
65636;SDS011;52327;42.622;23.316;2022-07-06T02:18:15;9.73;;;8.15;;
65636;SDS011;52327;42.622;23.316;2022-07-06T02:20:40;7.68;;;6.97;;
65636;SDS011;52327;42.622;23.316;2022-07-06T02:23:06;10.15;;;7.95;;
65636;SDS011;52327;42.622;23.316;2022-07-06T02:25:31;9.80;;;7.43;;
65636;SDS011;52327;42.622;23.316;2022-07-06T02:27:56;27.65;;;21.65;;
65636;SDS011;52327;42.622;23.316;2022-07-06T02:30:22;8.55;;;7.65;;
65636;SDS011;52327;42.622;23.316;2022-07-06T02:32:47;10.43;;;8.18;;
65636;SDS011;52327;42.622;23.316;2022-07-06T02:35:13;13.00;;;9.02;;
65636;SDS011;52327;42.622;23.316;2022-07-06T02:37:38;11.68;;;7.97;;
65636;SDS011;52327;42.622;23.316;2022-07-06T02:40:04;9.32;;;7.68;;
65636;SDS011;52327;42.622;23.316;2022-07-06T02:42:30;9.32;;;7.63;;
65636;SDS011;52327;42.622;23.316;2022-07-06T02:44:55;8.88;;;7.97;;
65636;SDS011;52327;42.622;23.316;2022-07-06T02:47:21;10.48;;;9.45;;
65636;SDS011;52327;42.622;23.316;2022-07-06T02:49:47;8.93;;;8.10;;
65636;SDS011;52327;42.622;23.316;2022-07-06T02:52:13;8.52;;;7.63;;
65636;SDS011;52327;42.622;23.316;2022-07-06T02:54:38;8.57;;;7.65;;
65636;SDS011;52327;42.622;23.316;2022-07-06T02:57:04;8.50;;;7.55;;
65636;SDS011;52327;42.622;23.316;2022-07-06T02:59:29;20.52;;;18.40;;
65636;SDS011;52327;42.622;23.316;2022-07-06T03:01:55;52.30;;;46.63;;
65636;SDS011;52327;42.622;23.316;2022-07-06T03:04:20;20.15;;;17.80;;
65636;SDS011;52327;42.622;23.316;2022-07-06T03:06:46;9.40;;;7.63;;
65636;SDS011;52327;42.622;23.316;2022-07-06T03:09:11;8.93;;;8.02;;
65636;SDS011;52327;42.622;23.316;2022-07-06T03:11:37;11.88;;;8.07;;
65636;SDS011;52327;42.622;23.316;2022-07-06T03:14:03;10.02;;;9.00;;
65636;SDS011;52327;42.622;23.316;2022-07-06T03:16:29;10.27;;;7.70;;
65636;SDS011;52327;42.622;23.316;2022-07-06T03:18:55;8.85;;;7.50;;
65636;SDS011;52327;42.622;23.316;2022-07-06T03:21:20;7.57;;;6.88;;
65636;SDS011;52327;42.622;23.316;2022-07-06T03:23:46;7.90;;;7.20;;
65636;SDS011;52327;42.622;23.316;2022-07-06T03:26:11;8.32;;;7.07;;
65636;SDS011;52327;42.622;23.316;2022-07-06T03:28:36;8.52;;;6.88;;
65636;SDS011;52327;42.622;23.316;2022-07-06T03:31:02;7.78;;;6.97;;
65636;SDS011;52327;42.622;23.316;2022-07-06T03:33:27;7.32;;;6.63;;
65636;SDS011;52327;42.622;23.316;2022-07-06T03:35:53;6.07;;;5.47;;
65636;SDS011;52327;42.622;23.316;2022-07-06T03:38:18;6.57;;;5.85;;
65636;SDS011;52327;42.622;23.316;2022-07-06T03:40:44;7.22;;;6.13;;
65636;SDS011;52327;42.622;23.316;2022-07-06T03:43:09;10.80;;;9.70;;
65636;SDS011;52327;42.622;23.316;2022-07-06T03:45:35;6.15;;;4.30;;
65636;SDS011;52327;42.622;23.316;2022-07-06T03:48:00;5.60;;;4.07;;
65636;SDS011;52327;42.622;23.316;2022-07-06T03:50:26;5.40;;;3.85;;
65636;SDS011;52327;42.622;23.316;2022-07-06T03:52:51;5.43;;;4.00;;
65636;SDS011;52327;42.622;23.316;2022-07-06T03:55:16;5.35;;;3.80;;
65636;SDS011;52327;42.622;23.316;2022-07-06T03:57:42;4.22;;;3.67;;
65636;SDS011;52327;42.622;23.316;2022-07-06T04:00:08;4.93;;;4.13;;
65636;SDS011;52327;42.622;23.316;2022-07-06T04:02:34;5.55;;;3.88;;
65636;SDS011;52327;42.622;23.316;2022-07-06T04:05:00;4.68;;;3.90;;
65636;SDS011;52327;42.622;23.316;2022-07-06T04:07:26;5.38;;;3.78;;
65636;SDS011;52327;42.622;23.316;2022-07-06T04:09:51;4.93;;;3.92;;
65636;SDS011;52327;42.622;23.316;2022-07-06T04:12:17;7.03;;;3.88;;
65636;SDS011;52327;42.622;23.316;2022-07-06T04:14:42;5.07;;;3.75;;
65636;SDS011;52327;42.622;23.316;2022-07-06T04:17:08;5.10;;;4.07;;
65636;SDS011;52327;42.622;23.316;2022-07-06T04:19:52;4.43;;;3.83;;
65636;SDS011;52327;42.622;23.316;2022-07-06T04:22:17;5.47;;;4.32;;
65636;SDS011;52327;42.622;23.316;2022-07-06T04:24:43;5.22;;;3.78;;
65636;SDS011;52327;42.622;23.316;2022-07-06T04:27:08;6.00;;;4.25;;
65636;SDS011;52327;42.622;23.316;2022-07-06T04:29:34;5.00;;;3.75;;
65636;SDS011;52327;42.622;23.316;2022-07-06T04:31:59;4.15;;;3.42;;
65636;SDS011;52327;42.622;23.316;2022-07-06T04:34:25;4.53;;;3.85;;
65636;SDS011;52327;42.622;23.316;2022-07-06T04:36:50;4.05;;;3.65;;
65636;SDS011;52327;42.622;23.316;2022-07-06T04:39:15;4.43;;;4.03;;
65636;SDS011;52327;42.622;23.316;2022-07-06T04:41:41;5.72;;;4.50;;
65636;SDS011;52327;42.622;23.316;2022-07-06T04:44:06;4.35;;;3.90;;
65636;SDS011;52327;42.622;23.316;2022-07-06T04:46:32;8.65;;;4.00;;
65636;SDS011;52327;42.622;23.316;2022-07-06T04:48:57;4.88;;;4.10;;
65636;SDS011;52327;42.622;23.316;2022-07-06T04:51:23;5.38;;;4.20;;
65636;SDS011;52327;42.622;23.316;2022-07-06T04:53:48;6.07;;;4.45;;
65636;SDS011;52327;42.622;23.316;2022-07-06T04:56:13;7.55;;;4.85;;
65636;SDS011;52327;42.622;23.316;2022-07-06T04:58:39;6.43;;;4.45;;
65636;SDS011;52327;42.622;23.316;2022-07-06T05:01:04;6.07;;;4.90;;
65636;SDS011;52327;42.622;23.316;2022-07-06T05:03:30;6.05;;;4.55;;
65636;SDS011;52327;42.622;23.316;2022-07-06T05:05:55;5.50;;;4.70;;
65636;SDS011;52327;42.622;23.316;2022-07-06T05:08:21;7.25;;;4.63;;
65636;SDS011;52327;42.622;23.316;2022-07-06T05:10:47;6.55;;;5.40;;
65636;SDS011;52327;42.622;23.316;2022-07-06T05:13:13;5.35;;;4.70;;
65636;SDS011;52327;42.622;23.316;2022-07-06T05:15:39;8.02;;;5.28;;
65636;SDS011;52327;42.622;23.316;2022-07-06T05:18:04;5.18;;;4.57;;
65636;SDS011;52327;42.622;23.316;2022-07-06T05:20:30;7.45;;;5.78;;
65636;SDS011;52327;42.622;23.316;2022-07-06T05:22:55;6.43;;;5.05;;
65636;SDS011;52327;42.622;23.316;2022-07-06T05:25:20;7.15;;;5.28;;
65636;SDS011;52327;42.622;23.316;2022-07-06T05:27:46;5.88;;;5.18;;
65636;SDS011;52327;42.622;23.316;2022-07-06T05:30:12;6.10;;;5.20;;
65636;SDS011;52327;42.622;23.316;2022-07-06T05:32:37;6.65;;;5.38;;
65636;SDS011;52327;42.622;23.316;2022-07-06T05:35:03;5.55;;;5.05;;
65636;SDS011;52327;42.622;23.316;2022-07-06T05:37:29;6.25;;;5.25;;
65636;SDS011;52327;42.622;23.316;2022-07-06T05:39:54;5.28;;;4.55;;
65636;SDS011;52327;42.622;23.316;2022-07-06T05:42:19;6.30;;;4.65;;
65636;SDS011;52327;42.622;23.316;2022-07-06T05:44:45;6.45;;;4.25;;
65636;SDS011;52327;42.622;23.316;2022-07-06T05:47:10;5.35;;;4.75;;
65636;SDS011;52327;42.622;23.316;2022-07-06T05:49:54;5.72;;;4.47;;
65636;SDS011;52327;42.622;23.316;2022-07-06T05:52:38;6.43;;;4.63;;
65636;SDS011;52327;42.622;23.316;2022-07-06T05:55:05;6.30;;;5.70;;
65636;SDS011;52327;42.622;23.316;2022-07-06T05:57:31;5.80;;;5.20;;
65636;SDS011;52327;42.622;23.316;2022-07-06T05:59:56;5.50;;;5.00;;
65636;SDS011;52327;42.622;23.316;2022-07-06T06:02:22;7.70;;;5.55;;
65636;SDS011;52327;42.622;23.316;2022-07-06T06:04:47;7.00;;;5.40;;
65636;SDS011;52327;42.622;23.316;2022-07-06T06:07:13;6.53;;;5.45;;
65636;SDS011;52327;42.622;23.316;2022-07-06T06:09:38;5.95;;;4.95;;
65636;SDS011;52327;42.622;23.316;2022-07-06T06:12:03;5.57;;;4.63;;
65636;SDS011;52327;42.622;23.316;2022-07-06T06:14:29;4.60;;;4.20;;
65636;SDS011;52327;42.622;23.316;2022-07-06T06:16:54;7.10;;;4.45;;
65636;SDS011;52327;42.622;23.316;2022-07-06T06:19:20;5.20;;;4.70;;
65636;SDS011;52327;42.622;23.316;2022-07-06T06:21:45;5.55;;;5.00;;
65636;SDS011;52327;42.622;23.316;2022-07-06T06:24:11;8.73;;;5.18;;
65636;SDS011;52327;42.622;23.316;2022-07-06T06:26:36;4.80;;;4.28;;
65636;SDS011;52327;42.622;23.316;2022-07-06T06:29:02;5.93;;;5.32;;
65636;SDS011;52327;42.622;23.316;2022-07-06T06:31:27;6.57;;;4.43;;
65636;SDS011;52327;42.622;23.316;2022-07-06T06:33:53;6.00;;;4.90;;
65636;SDS011;52327;42.622;23.316;2022-07-06T06:36:21;9.35;;;5.32;;
65636;SDS011;52327;42.622;23.316;2022-07-06T06:38:46;6.43;;;5.30;;
65636;SDS011;52327;42.622;23.316;2022-07-06T06:41:12;6.75;;;5.35;;
65636;SDS011;52327;42.622;23.316;2022-07-06T06:43:38;7.45;;;5.47;;
65636;SDS011;52327;42.622;23.316;2022-07-06T06:46:03;6.40;;;5.22;;
65636;SDS011;52327;42.622;23.316;2022-07-06T06:48:29;5.88;;;5.18;;
65636;SDS011;52327;42.622;23.316;2022-07-06T06:50:56;8.75;;;6.20;;
65636;SDS011;52327;42.622;23.316;2022-07-06T06:53:21;6.55;;;5.13;;
65636;SDS011;52327;42.622;23.316;2022-07-06T06:55:47;9.88;;;6.68;;
65636;SDS011;52327;42.622;23.316;2022-07-06T06:58:12;7.07;;;6.25;;
65636;SDS011;52327;42.622;23.316;2022-07-06T07:00:38;6.88;;;5.55;;
65636;SDS011;52327;42.622;23.316;2022-07-06T07:03:08;7.75;;;5.97;;
65636;SDS011;52327;42.622;23.316;2022-07-06T07:05:35;7.10;;;5.82;;
65636;SDS011;52327;42.622;23.316;2022-07-06T07:08:00;5.90;;;5.30;;
65636;SDS011;52327;42.622;23.316;2022-07-06T07:10:26;6.90;;;6.03;;
65636;SDS011;52327;42.622;23.316;2022-07-06T07:12:51;7.43;;;6.30;;
65636;SDS011;52327;42.622;23.316;2022-07-06T07:15:18;6.93;;;5.90;;
65636;SDS011;52327;42.622;23.316;2022-07-06T07:17:43;6.35;;;5.63;;
65636;SDS011;52327;42.622;23.316;2022-07-06T07:20:10;6.85;;;6.15;;
65636;SDS011;52327;42.622;23.316;2022-07-06T07:22:35;7.95;;;7.15;;
65636;SDS011;52327;42.622;23.316;2022-07-06T07:25:01;7.43;;;6.65;;
65636;SDS011;52327;42.622;23.316;2022-07-06T07:27:27;8.63;;;6.97;;
65636;SDS011;52327;42.622;23.316;2022-07-06T07:29:52;8.45;;;6.10;;
65636;SDS011;52327;42.622;23.316;2022-07-06T07:32:18;8.00;;;6.85;;
65636;SDS011;52327;42.622;23.316;2022-07-06T07:34:45;8.00;;;6.82;;
65636;SDS011;52327;42.622;23.316;2022-07-06T07:37:10;7.57;;;6.80;;
65636;SDS011;52327;42.622;23.316;2022-07-06T07:39:36;8.65;;;7.72;;
65636;SDS011;52327;42.622;23.316;2022-07-06T07:42:01;8.43;;;7.28;;
65636;SDS011;52327;42.622;23.316;2022-07-06T07:44:27;8.18;;;7.38;;
65636;SDS011;52327;42.622;23.316;2022-07-06T07:46:52;10.25;;;7.85;;
65636;SDS011;52327;42.622;23.316;2022-07-06T07:49:18;8.70;;;7.90;;
65636;SDS011;52327;42.622;23.316;2022-07-06T07:51:49;8.75;;;7.90;;
65636;SDS011;52327;42.622;23.316;2022-07-06T07:54:15;7.70;;;6.90;;
65636;SDS011;52327;42.622;23.316;2022-07-06T07:56:41;8.23;;;6.72;;
65636;SDS011;52327;42.622;23.316;2022-07-06T07:59:07;9.02;;;7.65;;
65636;SDS011;52327;42.622;23.316;2022-07-06T08:01:33;8.95;;;7.60;;
65636;SDS011;52327;42.622;23.316;2022-07-06T08:03:59;8.63;;;7.82;;
65636;SDS011;52327;42.622;23.316;2022-07-06T08:06:25;9.65;;;8.15;;
65636;SDS011;52327;42.622;23.316;2022-07-06T08:08:51;8.95;;;8.02;;
65636;SDS011;52327;42.622;23.316;2022-07-06T08:11:16;9.05;;;8.15;;
65636;SDS011;52327;42.622;23.316;2022-07-06T08:13:42;8.43;;;7.53;;
65636;SDS011;52327;42.622;23.316;2022-07-06T08:16:08;7.07;;;6.38;;
65636;SDS011;52327;42.622;23.316;2022-07-06T08:18:34;7.30;;;6.47;;
65636;SDS011;52327;42.622;23.316;2022-07-06T08:21:00;8.00;;;7.28;;
65636;SDS011;52327;42.622;23.316;2022-07-06T08:23:25;6.90;;;6.18;;
65636;SDS011;52327;42.622;23.316;2022-07-06T08:25:54;7.13;;;6.32;;
65636;SDS011;52327;42.622;23.316;2022-07-06T08:28:19;6.93;;;6.03;;
65636;SDS011;52327;42.622;23.316;2022-07-06T08:30:45;7.78;;;7.03;;
65636;SDS011;52327;42.622;23.316;2022-07-06T08:33:11;7.93;;;6.88;;
65636;SDS011;52327;42.622;23.316;2022-07-06T08:35:36;6.30;;;5.70;;
65636;SDS011;52327;42.622;23.316;2022-07-06T08:38:04;6.93;;;5.82;;
65636;SDS011;52327;42.622;23.316;2022-07-06T08:40:32;6.57;;;5.90;;
65636;SDS011;52327;42.622;23.316;2022-07-06T08:42:59;6.53;;;5.93;;
65636;SDS011;52327;42.622;23.316;2022-07-06T08:45:26;6.50;;;5.68;;
65636;SDS011;52327;42.622;23.316;2022-07-06T08:47:52;6.60;;;5.90;;
65636;SDS011;52327;42.622;23.316;2022-07-06T08:50:19;6.93;;;6.28;;
65636;SDS011;52327;42.622;23.316;2022-07-06T08:52:47;6.32;;;5.70;;
65636;SDS011;52327;42.622;23.316;2022-07-06T08:55:13;6.85;;;6.15;;
65636;SDS011;52327;42.622;23.316;2022-07-06T08:57:40;7.30;;;6.60;;
65636;SDS011;52327;42.622;23.316;2022-07-06T09:00:07;8.50;;;6.47;;
65636;SDS011;52327;42.622;23.316;2022-07-06T09:02:33;7.72;;;6.47;;
65636;SDS011;52327;42.622;23.316;2022-07-06T09:05:00;7.80;;;6.32;;
65636;SDS011;52327;42.622;23.316;2022-07-06T09:07:27;7.55;;;6.85;;
65636;SDS011;52327;42.622;23.316;2022-07-06T09:09:54;6.65;;;6.05;;
65636;SDS011;52327;42.622;23.316;2022-07-06T09:12:20;8.40;;;6.82;;
65636;SDS011;52327;42.622;23.316;2022-07-06T09:14:45;7.13;;;5.97;;
65636;SDS011;52327;42.622;23.316;2022-07-06T09:17:11;6.53;;;5.82;;
65636;SDS011;52327;42.622;23.316;2022-07-06T09:19:37;6.43;;;5.82;;
65636;SDS011;52327;42.622;23.316;2022-07-06T09:22:03;6.13;;;5.25;;
65636;SDS011;52327;42.622;23.316;2022-07-06T09:24:31;6.53;;;5.22;;
65636;SDS011;52327;42.622;23.316;2022-07-06T09:26:57;6.03;;;5.53;;
65636;SDS011;52327;42.622;23.316;2022-07-06T09:29:30;7.15;;;5.80;;
65636;SDS011;52327;42.622;23.316;2022-07-06T09:31:57;6.68;;;5.88;;
65636;SDS011;52327;42.622;23.316;2022-07-06T09:34:23;7.90;;;6.38;;
65636;SDS011;52327;42.622;23.316;2022-07-06T09:36:48;7.03;;;5.68;;
65636;SDS011;52327;42.622;23.316;2022-07-06T09:39:23;7.50;;;5.85;;
65636;SDS011;52327;42.622;23.316;2022-07-06T09:41:53;6.10;;;5.50;;
65636;SDS011;52327;42.622;23.316;2022-07-06T09:44:21;7.30;;;6.05;;
65636;SDS011;52327;42.622;23.316;2022-07-06T09:46:51;6.80;;;6.20;;
65636;SDS011;52327;42.622;23.316;2022-07-06T09:49:18;6.70;;;6.00;;
65636;SDS011;52327;42.622;23.316;2022-07-06T09:51:45;5.82;;;5.30;;
65636;SDS011;52327;42.622;23.316;2022-07-06T09:56:40;6.35;;;5.75;;
65636;SDS011;52327;42.622;23.316;2022-07-06T10:01:40;7.85;;;7.05;;
65636;SDS011;52327;42.622;23.316;2022-07-06T10:04:06;8.38;;;7.55;;
65636;SDS011;52327;42.622;23.316;2022-07-06T10:06:32;7.50;;;6.80;;
65636;SDS011;52327;42.622;23.316;2022-07-06T10:08:58;8.45;;;7.65;;
65636;SDS011;52327;42.622;23.316;2022-07-06T10:11:24;8.32;;;7.47;;
65636;SDS011;52327;42.622;23.316;2022-07-06T10:13:52;10.15;;;7.40;;
65636;SDS011;52327;42.622;23.316;2022-07-06T10:16:21;9.05;;;7.63;;
65636;SDS011;52327;42.622;23.316;2022-07-06T10:18:48;8.57;;;7.78;;
65636;SDS011;52327;42.622;23.316;2022-07-06T10:21:15;7.72;;;6.88;;
65636;SDS011;52327;42.622;23.316;2022-07-06T10:23:41;8.43;;;7.47;;
65636;SDS011;52327;42.622;23.316;2022-07-06T10:26:07;8.00;;;7.20;;
65636;SDS011;52327;42.622;23.316;2022-07-06T10:28:34;7.82;;;7.03;;
65636;SDS011;52327;42.622;23.316;2022-07-06T10:31:00;7.45;;;6.75;;
65636;SDS011;52327;42.622;23.316;2022-07-06T10:33:26;8.48;;;7.10;;
65636;SDS011;52327;42.622;23.316;2022-07-06T10:35:51;7.65;;;6.85;;
65636;SDS011;52327;42.622;23.316;2022-07-06T10:38:17;7.82;;;7.18;;
65636;SDS011;52327;42.622;23.316;2022-07-06T10:40:44;7.32;;;6.63;;
65636;SDS011;52327;42.622;23.316;2022-07-06T10:43:31;8.40;;;7.70;;
65636;SDS011;52327;42.622;23.316;2022-07-06T10:46:13;9.32;;;8.43;;
65636;SDS011;52327;42.622;23.316;2022-07-06T10:48:44;8.68;;;7.60;;
65636;SDS011;52327;42.622;23.316;2022-07-06T10:51:11;7.35;;;6.65;;
65636;SDS011;52327;42.622;23.316;2022-07-06T10:53:38;7.43;;;6.72;;
65636;SDS011;52327;42.622;23.316;2022-07-06T10:56:06;8.35;;;7.55;;
65636;SDS011;52327;42.622;23.316;2022-07-06T11:01:19;8.40;;;6.93;;
65636;SDS011;52327;42.622;23.316;2022-07-06T11:06:28;9.15;;;7.65;;
65636;SDS011;52327;42.622;23.316;2022-07-06T11:08:58;7.82;;;7.05;;
65636;SDS011;52327;42.622;23.316;2022-07-06T11:19:20;8.27;;;7.28;;
65636;SDS011;52327;42.622;23.316;2022-07-06T11:21:52;8.15;;;7.35;;
65636;SDS011;52327;42.622;23.316;2022-07-06T11:24:25;8.13;;;7.18;;
65636;SDS011;52327;42.622;23.316;2022-07-06T11:26:55;7.85;;;7.05;;
65636;SDS011;52327;42.622;23.316;2022-07-06T11:29:22;7.28;;;6.57;;
65636;SDS011;52327;42.622;23.316;2022-07-06T11:31:49;7.32;;;6.63;;
65636;SDS011;52327;42.622;23.316;2022-07-06T11:34:21;7.47;;;6.80;;
65636;SDS011;52327;42.622;23.316;2022-07-06T11:36:53;7.55;;;6.88;;
65636;SDS011;52327;42.622;23.316;2022-07-06T11:39:20;7.85;;;7.05;;
65636;SDS011;52327;42.622;23.316;2022-07-06T11:41:45;9.10;;;8.27;;
65636;SDS011;52327;42.622;23.316;2022-07-06T11:44:11;9.07;;;8.27;;
65636;SDS011;52327;42.622;23.316;2022-07-06T11:46:36;8.23;;;7.32;;
65636;SDS011;52327;42.622;23.316;2022-07-06T11:51:30;8.32;;;6.95;;
65636;SDS011;52327;42.622;23.316;2022-07-06T11:54:00;6.40;;;5.80;;
65636;SDS011;52327;42.622;23.316;2022-07-06T11:56:30;7.68;;;7.03;;
65636;SDS011;52327;42.622;23.316;2022-07-06T11:58:56;7.00;;;6.40;;
65636;SDS011;52327;42.622;23.316;2022-07-06T12:01:24;7.10;;;6.50;;
65636;SDS011;52327;42.622;23.316;2022-07-06T12:03:51;6.78;;;6.20;;
65636;SDS011;52327;42.622;23.316;2022-07-06T12:06:18;6.68;;;6.07;;
65636;SDS011;52327;42.622;23.316;2022-07-06T12:11:21;7.45;;;6.72;;
65636;SDS011;52327;42.622;23.316;2022-07-06T12:13:47;6.78;;;6.15;;
65636;SDS011;52327;42.622;23.316;2022-07-06T12:16:13;7.20;;;6.60;;
65636;SDS011;52327;42.622;23.316;2022-07-06T12:18:46;7.22;;;6.53;;
65636;SDS011;52327;42.622;23.316;2022-07-06T12:21:16;6.60;;;6.00;;
65636;SDS011;52327;42.622;23.316;2022-07-06T12:23:45;7.43;;;6.80;;
65636;SDS011;52327;42.622;23.316;2022-07-06T12:26:15;7.10;;;6.50;;
65636;SDS011;52327;42.622;23.316;2022-07-06T12:28:42;7.85;;;7.00;;
65636;SDS011;52327;42.622;23.316;2022-07-06T12:31:10;6.32;;;5.82;;
65636;SDS011;52327;42.622;23.316;2022-07-06T12:33:35;7.20;;;6.60;;
65636;SDS011;52327;42.622;23.316;2022-07-06T12:36:14;6.55;;;5.95;;
65636;SDS011;52327;42.622;23.316;2022-07-06T12:38:44;6.50;;;5.90;;
65636;SDS011;52327;42.622;23.316;2022-07-06T12:41:11;6.05;;;5.45;;
65636;SDS011;52327;42.622;23.316;2022-07-06T12:43:47;5.80;;;5.20;;
65636;SDS011;52327;42.622;23.316;2022-07-06T12:46:28;5.60;;;5.10;;
65636;SDS011;52327;42.622;23.316;2022-07-06T12:48:55;6.60;;;5.63;;
65636;SDS011;52327;42.622;23.316;2022-07-06T12:51:22;5.32;;;4.82;;
65636;SDS011;52327;42.622;23.316;2022-07-06T12:53:48;5.43;;;4.93;;
65636;SDS011;52327;42.622;23.316;2022-07-06T12:56:14;5.00;;;4.57;;
65636;SDS011;52327;42.622;23.316;2022-07-06T12:58:54;4.70;;;4.28;;
65636;SDS011;52327;42.622;23.316;2022-07-06T13:01:23;4.35;;;3.97;;
65636;SDS011;52327;42.622;23.316;2022-07-06T13:03:53;4.60;;;4.20;;
65636;SDS011;52327;42.622;23.316;2022-07-06T13:06:27;5.28;;;4.45;;
65636;SDS011;52327;42.622;23.316;2022-07-06T13:09:02;4.35;;;3.92;;
65636;SDS011;52327;42.622;23.316;2022-07-06T13:11:28;4.72;;;4.20;;
65636;SDS011;52327;42.622;23.316;2022-07-06T13:13:53;4.78;;;4.38;;
65636;SDS011;52327;42.622;23.316;2022-07-06T13:16:19;4.72;;;4.32;;
65636;SDS011;52327;42.622;23.316;2022-07-06T13:18:44;4.85;;;4.45;;
65636;SDS011;52327;42.622;23.316;2022-07-06T13:21:10;4.50;;;4.13;;
65636;SDS011;52327;42.622;23.316;2022-07-06T13:23:36;4.00;;;3.70;;
65636;SDS011;52327;42.622;23.316;2022-07-06T13:26:01;3.63;;;3.33;;
65636;SDS011;52327;42.622;23.316;2022-07-06T13:28:27;4.22;;;3.22;;
65636;SDS011;52327;42.622;23.316;2022-07-06T13:30:52;6.20;;;3.78;;
65636;SDS011;52327;42.622;23.316;2022-07-06T13:35:48;3.92;;;3.53;;
65636;SDS011;52327;42.622;23.316;2022-07-06T13:38:14;4.15;;;3.75;;
65636;SDS011;52327;42.622;23.316;2022-07-06T13:40:39;3.47;;;3.17;;
65636;SDS011;52327;42.622;23.316;2022-07-06T13:43:06;3.60;;;3.30;;
65636;SDS011;52327;42.622;23.316;2022-07-06T13:45:31;4.32;;;3.33;;
65636;SDS011;52327;42.622;23.316;2022-07-06T13:47:57;3.53;;;3.22;;
65636;SDS011;52327;42.622;23.316;2022-07-06T13:50:23;3.53;;;2.85;;
65636;SDS011;52327;42.622;23.316;2022-07-06T13:52:50;6.20;;;2.60;;
65636;SDS011;52327;42.622;23.316;2022-07-06T13:55:15;3.85;;;2.40;;
65636;SDS011;52327;42.622;23.316;2022-07-06T13:57:41;3.72;;;2.28;;
65636;SDS011;52327;42.622;23.316;2022-07-06T14:00:07;2.10;;;1.90;;
65636;SDS011;52327;42.622;23.316;2022-07-06T14:02:33;2.55;;;1.98;;
65636;SDS011;52327;42.622;23.316;2022-07-06T14:04:59;4.20;;;1.95;;
65636;SDS011;52327;42.622;23.316;2022-07-06T14:07:27;1.50;;;1.40;;
65636;SDS011;52327;42.622;23.316;2022-07-06T14:09:52;1.40;;;1.30;;
65636;SDS011;52327;42.622;23.316;2022-07-06T14:12:18;1.40;;;1.30;;
65636;SDS011;52327;42.622;23.316;2022-07-06T14:14:44;2.75;;;1.50;;
65636;SDS011;52327;42.622;23.316;2022-07-06T14:17:09;1.60;;;1.50;;
65636;SDS011;52327;42.622;23.316;2022-07-06T14:19:35;2.40;;;1.33;;
65636;SDS011;52327;42.622;23.316;2022-07-06T14:22:00;2.17;;;1.27;;
65636;SDS011;52327;42.622;23.316;2022-07-06T14:24:25;1.63;;;1.50;;
65636;SDS011;52327;42.622;23.316;2022-07-06T14:26:51;1.35;;;1.25;;
65636;SDS011;52327;42.622;23.316;2022-07-06T14:29:17;2.92;;;1.52;;
65636;SDS011;52327;42.622;23.316;2022-07-06T14:31:42;1.75;;;1.35;;
65636;SDS011;52327;42.622;23.316;2022-07-06T14:34:09;1.23;;;1.13;;
65636;SDS011;52327;42.622;23.316;2022-07-06T14:36:35;1.30;;;1.20;;
65636;SDS011;52327;42.622;23.316;2022-07-06T14:39:02;2.75;;;1.55;;
65636;SDS011;52327;42.622;23.316;2022-07-06T14:41:29;1.70;;;1.60;;
65636;SDS011;52327;42.622;23.316;2022-07-06T14:43:55;1.70;;;1.50;;
65636;SDS011;52327;42.622;23.316;2022-07-06T14:46:20;1.83;;;1.50;;
65636;SDS011;52327;42.622;23.316;2022-07-06T14:48:45;2.35;;;1.58;;
65636;SDS011;52327;42.622;23.316;2022-07-06T14:51:11;2.53;;;1.80;;
65636;SDS011;52327;42.622;23.316;2022-07-06T14:53:37;2.83;;;1.52;;
65636;SDS011;52327;42.622;23.316;2022-07-06T14:56:02;2.53;;;1.70;;
65636;SDS011;52327;42.622;23.316;2022-07-06T14:58:28;2.03;;;1.50;;